Swallowfield Close, Crewe weather

Latitude N 53° 04' 54" Longitude W 02° 27' 25" Elevation 52 m Grid Ref SJ69475393

This page shows a table of observations data for today using the Cumulus "recent history" webtags facility. It is experimental only. The table shows data observations at 10 minute intervals for the 8 hours prior to 00:00 on Monday 25 March i.e. the time this page was processed by Cumulus. Ideally in the long-term this will be replaced by a script to read data/realtimelog.txt for the current (or selectable) date and display all the observations for the applicable meteorological date (25/03/2019 in this case) starting at midnight (rollover time). This will fix the start of the observations table to a defined point.

The graph shows the same data but at 5-minute intervals.


Table of observations data (at 10-minute intervals) for Swallowfield Close, Crewe since 15:00 on 25/03/2019
Observations
Time Temp Wind Chill Dewpoint Pressure Wind Speed Wind Gust Wind Dir Humidity Rainfall
15:00 12.9 °C 12.9 °C 0.9 °C 1023.2 hPa 9.4 km/h 15.8 km/h 44 % 0.0 mm
15:10 12.4 °C 12.4 °C 1.1 °C 1023.2 hPa 9.6 km/h 14.8 km/h 46 % 0.0 mm
15:20 12.1 °C 12.1 °C 1.4 °C 1023.3 hPa 7.7 km/h 12.2 km/h 48 % 0.0 mm
15:30 11.4 °C 11.4 °C 1.1 °C 1023.4 hPa 7.4 km/h 11.2 km/h 49 % 0.0 mm
15:40 10.9 °C 10.9 °C 1.2 °C 1023.3 hPa 9.3 km/h 15.8 km/h 51 % 0.0 mm
15:50 10.9 °C 10.9 °C 1.7 °C 1023.3 hPa 7.9 km/h 13.3 km/h 53 % 0.0 mm
16:00 10.8 °C 10.8 °C 1.6 °C 1023.3 hPa 7.7 km/h 17.3 km/h 53 % 0.0 mm
16:10 10.8 °C 10.8 °C 1.9 °C 1023.1 hPa 6.7 km/h 11.2 km/h 54 % 0.0 mm
16:20 10.6 °C 10.6 °C 1.7 °C 1023.0 hPa 11.0 km/h 18.4 km/h 54 % 0.0 mm
16:30 10.6 °C 10.6 °C 1.7 °C 1022.8 hPa 10.6 km/h 14.8 km/h 54 % 0.0 mm
16:40 10.8 °C 10.8 °C 1.9 °C 1022.8 hPa 6.3 km/h 8.6 km/h 54 % 0.0 mm
16:50 10.8 °C 10.8 °C 1.6 °C 1022.9 hPa 10.0 km/h 23.4 km/h 53 % 0.0 mm
17:00 10.7 °C 10.7 °C 2.0 °C 1022.9 hPa 8.3 km/h 17.3 km/h 55 % 0.0 mm
17:10 10.7 °C 10.7 °C 2.3 °C 1022.9 hPa 4.5 km/h 8.6 km/h 56 % 0.0 mm
17:20 10.8 °C 10.8 °C 2.1 °C 1022.8 hPa 10.2 km/h 17.3 km/h 55 % 0.0 mm
17:30 10.6 °C 10.6 °C 1.9 °C 1022.9 hPa 9.0 km/h 11.2 km/h 55 % 0.0 mm
17:40 10.4 °C 10.4 °C 2.0 °C 1022.7 hPa 9.0 km/h 15.8 km/h 56 % 0.0 mm
17:50 10.3 °C 10.3 °C 2.2 °C 1022.8 hPa 8.5 km/h 15.8 km/h 57 % 0.0 mm
18:00 10.2 °C 10.2 °C 2.3 °C 1022.8 hPa 9.5 km/h 18.4 km/h 58 % 0.0 mm
18:10 10.1 °C 10.1 °C 2.5 °C 1022.7 hPa 10.7 km/h 14.8 km/h 59 % 0.0 mm
18:20 10.0 °C 10.0 °C 2.6 °C 1022.8 hPa 8.8 km/h 15.8 km/h 60 % 0.0 mm
18:30 9.9 °C 9.0 °C 2.7 °C 1022.8 hPa 7.3 km/h 11.2 km/h 61 % 0.0 mm
18:40 9.8 °C 9.0 °C 2.6 °C 1022.9 hPa 7.0 km/h 13.3 km/h 61 % 0.0 mm
18:50 9.8 °C 8.5 °C 2.9 °C 1022.8 hPa 9.2 km/h 15.8 km/h 62 % 0.0 mm
19:00 9.7 °C 9.0 °C 3.0 °C 1022.8 hPa 6.7 km/h 13.3 km/h 63 % 0.0 mm
19:10 9.6 °C 7.7 °C 2.9 °C 1022.7 hPa 12.7 km/h 13.3 km/h 63 % 0.0 mm
19:20 9.5 °C 8.4 °C 3.0 °C 1022.8 hPa 8.3 km/h 18.4 km/h 64 % 0.0 mm
19:30 9.4 °C 8.4 °C 2.9 °C 1022.9 hPa 7.3 km/h 9.7 km/h 64 % 0.0 mm
19:40 9.3 °C 7.9 °C 3.3 °C 1022.9 hPa 9.7 km/h 17.3 km/h 66 % 0.0 mm
19:50 9.4 °C 8.5 °C 3.6 °C 1023.0 hPa 7.2 km/h 12.2 km/h 67 % 0.0 mm
20:00 9.3 °C 8.2 °C 3.7 °C 1022.9 hPa 7.9 km/h 18.4 km/h 68 % 0.0 mm
20:10 9.3 °C 8.9 °C 3.9 °C 1023.1 hPa 5.4 km/h 8.6 km/h 69 % 0.0 mm
20:20 9.2 °C 8.0 °C 3.8 °C 1023.2 hPa 8.4 km/h 20.9 km/h 69 % 0.0 mm
20:30 9.2 °C 7.8 °C 4.0 °C 1023.0 hPa 9.2 km/h 18.4 km/h 70 % 0.0 mm
20:40 9.0 °C 7.4 °C 3.8 °C 1022.8 hPa 10.1 km/h 17.3 km/h 70 % 0.0 mm
20:50 8.8 °C 7.6 °C 4.0 °C 1023.0 hPa 8.1 km/h 14.8 km/h 72 % 0.0 mm
21:00 8.5 °C 7.4 °C 3.9 °C 1022.9 hPa 7.5 km/h 11.2 km/h 73 % 0.0 mm
21:10 8.4 °C 7.1 °C 4.0 °C 1022.6 hPa 8.2 km/h 11.2 km/h 74 % 0.0 mm
21:20 8.2 °C 6.8 °C 4.0 °C 1022.9 hPa 8.4 km/h 14.8 km/h 75 % 0.0 mm
21:30 8.4 °C 6.9 °C 4.4 °C 1023.0 hPa 9.1 km/h 17.3 km/h 76 % 0.0 mm
21:40 8.2 °C 6.2 °C 5.0 °C 1023.0 hPa 11.4 km/h 18.4 km/h 80 % 0.3 mm
21:50 7.8 °C 5.7 °C 4.9 °C 1023.0 hPa 11.8 km/h 17.3 km/h 82 % 0.3 mm
22:00 7.7 °C 5.5 °C 5.0 °C 1023.1 hPa 12.4 km/h 18.4 km/h 83 % 0.3 mm
22:10 7.6 °C 6.4 °C 5.1 °C 1023.1 hPa 7.2 km/h 15.8 km/h 84 % 0.3 mm
22:20 7.6 °C 6.9 °C 5.2 °C 1023.0 hPa 5.3 km/h 12.2 km/h 85 % 0.3 mm
22:30 7.6 °C 6.8 °C 5.4 °C 1022.9 hPa 5.6 km/h 12.2 km/h 86 % 0.3 mm
22:40 7.6 °C 7.0 °C 5.4 °C 1022.9 hPa 5.0 km/h 8.6 km/h 86 % 0.3 mm
22:50 7.7 °C 6.6 °C 5.5 °C 1023.0 hPa 6.7 km/h 12.2 km/h 86 % 0.3 mm
23:00 7.6 °C 6.9 °C 5.4 °C 1023.0 hPa 5.4 km/h 9.7 km/h 86 % 0.6 mm
23:10 7.6 °C 6.5 °C 5.2 °C 1023.0 hPa 6.7 km/h 9.7 km/h 85 % 0.6 mm
23:20 7.7 °C 5.7 °C 5.0 °C 1022.9 hPa 10.7 km/h 18.4 km/h 83 % 0.6 mm
23:30 7.7 °C 5.5 °C 4.6 °C 1023.2 hPa 11.9 km/h 19.4 km/h 81 % 0.6 mm
23:40 7.2 °C 4.6 °C 4.0 °C 1022.7 hPa 14.1 km/h 22.0 km/h 80 % 0.6 mm
23:50 6.8 °C 4.8 °C 3.6 °C 1022.9 hPa 10.1 km/h 19.4 km/h 80 % 0.6 mm
:now: :trends: :gauges: :today/yesterday: :observations:
:month/year: :monthly records: :all-time records: :annual data: :noaa reports: :seasonal averages:
:mobile: :forum: :webcam: :system:



Page updated 25/03/2019 00:00:36
powered by Cumulus v1.9.4 (1099)